Time;durP1;ratioP1;P1;durP2;ratioP2;P2;SDS_P1;SDS_P2;PMS_P1;PMS_P2;Temp;Humidity;BMP_temperature;BMP_pressure;BME280_temperature;BME280_humidity;BME280_pressure;Samples;Min_cycle;Max_cycle;Signal;HPM_P1;HPM_P2
2022/04/11 00:00:17;;;;;;;14.60;10.25;;;;;;;;;;5095345;28;20199;-68
2022/04/11 00:02:45;;;;;;;14.30;9.95;;;;;;;;;;5094655;28;20215;-67
2022/04/11 00:05:12;;;;;;;12.70;11.45;;;;;;;;;;5094127;28;20204;-67
2022/04/11 00:07:39;;;;;;;14.05;9.48;;;;;;;;;;5094570;28;20295;-68
2022/04/11 00:10:06;;;;;;;13.60;10.10;;;;;;;;;;5094586;28;20194;-68
2022/04/11 00:12:36;;;;;;;10.93;9.73;;;;;;;;;;5094414;28;20288;-67
2022/04/11 00:15:06;;;;;;;11.07;9.23;;;;;;;;;;5094770;28;20198;-67
2022/04/11 00:17:33;;;;;;;14.60;9.68;;;;;;;;;;5094653;28;20221;-68
2022/04/11 00:20:00;;;;;;;14.93;10.10;;;;;;;;;;5094729;28;20193;-68
2022/04/11 00:22:27;;;;;;;14.93;9.88;;;;;;;;;;5094177;28;20295;-68
2022/04/11 00:24:55;;;;;;;18.10;10.82;;;;;;;;;;5094328;28;20198;-68
2022/04/11 00:27:22;;;;;;;13.27;10.88;;;;;;;;;;5094579;28;20530;-68
2022/04/11 00:29:50;;;;;;;15.07;11.32;;;;;;;;;;5094504;28;20197;-68
2022/04/11 00:32:17;;;;;;;16.67;11.30;;;;;;;;;;5094508;28;20197;-68
2022/04/11 00:34:45;;;;;;;14.55;10.45;;;;;;;;;;5094356;28;20207;-68
2022/04/11 00:37:12;;;;;;;16.83;11.13;;;;;;;;;;5094155;28;20662;-67
2022/04/11 00:39:39;;;;;;;13.07;11.65;;;;;;;;;;5094306;28;20201;-67
2022/04/11 00:42:10;;;;;;;15.63;11.38;;;;;;;;;;5094474;28;20194;-68
2022/04/11 00:44:37;;;;;;;13.50;10.73;;;;;;;;;;5093870;28;20225;-67
2022/04/11 00:47:06;;;;;;;13.90;11.75;;;;;;;;;;5094219;28;20317;-67
2022/04/11 00:49:33;;;;;;;14.85;11.25;;;;;;;;;;5093813;28;20293;-68
2022/04/11 00:52:00;;;;;;;17.67;11.27;;;;;;;;;;5093878;28;20190;-68
2022/04/11 00:54:29;;;;;;;12.30;10.63;;;;;;;;;;5094081;28;20205;-68
2022/04/11 00:56:57;;;;;;;16.45;12.20;;;;;;;;;;5093731;28;20244;-68
2022/04/11 00:59:25;;;;;;;15.50;11.57;;;;;;;;;;5093978;28;20190;-68
2022/04/11 01:01:52;;;;;;;16.77;11.23;;;;;;;;;;5094513;28;20202;-68
2022/04/11 01:04:24;;;;;;;13.57;10.70;;;;;;;;;;5093493;28;20686;-68
2022/04/11 01:06:51;;;;;;;12.35;11.05;;;;;;;;;;5093679;28;20190;-68
2022/04/11 01:09:18;;;;;;;13.73;10.77;;;;;;;;;;5093736;28;20212;-68
2022/04/11 01:11:46;;;;;;;14.05;10.82;;;;;;;;;;5094258;28;20285;-69
2022/04/11 01:14:13;;;;;;;18.13;11.25;;;;;;;;;;5093720;28;20200;-68
2022/04/11 01:16:40;;;;;;;14.23;12.30;;;;;;;;;;5092663;28;20197;-68
2022/04/11 01:19:07;;;;;;;19.75;11.00;;;;;;;;;;5093705;28;20241;-68
2022/04/11 01:21:36;;;;;;;13.02;10.48;;;;;;;;;;5094307;28;20195;-68
2022/04/11 01:24:03;;;;;;;11.25;9.82;;;;;;;;;;5093602;28;20224;-69
2022/04/11 01:26:31;;;;;;;13.30;10.82;;;;;;;;;;5093872;28;20248;-69
2022/04/11 01:28:59;;;;;;;14.02;10.18;;;;;;;;;;5093294;28;20194;-69
2022/04/11 01:31:26;;;;;;;13.25;9.52;;;;;;;;;;5093710;28;20196;-69
2022/04/11 01:33:53;;;;;;;15.18;9.70;;;;;;;;;;5093593;28;20199;-68
2022/04/11 01:36:20;;;;;;;10.68;8.60;;;;;;;;;;5093320;28;20232;-68
2022/04/11 01:38:49;;;;;;;12.13;8.68;;;;;;;;;;5093863;28;20679;-68
2022/04/11 01:41:16;;;;;;;10.85;9.68;;;;;;;;;;5093593;28;20200;-68
2022/04/11 01:43:45;;;;;;;11.68;8.68;;;;;;;;;;5093466;28;20308;-68
2022/04/11 01:46:12;;;;;;;8.93;8.02;;;;;;;;;;5093414;28;21782;-67
2022/04/11 01:48:39;;;;;;;15.98;10.18;;;;;;;;;;5093191;28;20277;-68
2022/04/11 01:51:06;;;;;;;12.07;8.73;;;;;;;;;;5093535;28;20385;-69
2022/04/11 01:53:34;;;;;;;12.85;8.70;;;;;;;;;;5093350;28;20244;-67
2022/04/11 01:56:02;;;;;;;14.43;9.45;;;;;;;;;;5093452;28;20200;-68
2022/04/11 01:58:29;;;;;;;12.02;9.75;;;;;;;;;;5093319;28;20193;-68
2022/04/11 02:00:58;;;;;;;10.75;8.77;;;;;;;;;;5093350;28;20281;-68
2022/04/11 02:03:26;;;;;;;13.68;9.43;;;;;;;;;;5093323;28;20270;-68
2022/04/11 02:05:53;;;;;;;9.43;8.52;;;;;;;;;;5093281;28;20611;-68
2022/04/11 02:08:21;;;;;;;16.50;10.82;;;;;;;;;;5093079;28;20202;-68
2022/04/11 02:10:48;;;;;;;16.58;10.18;;;;;;;;;;5093232;28;20205;-69
2022/04/11 02:13:17;;;;;;;9.73;8.18;;;;;;;;;;5093622;28;20194;-68
2022/04/11 02:15:44;;;;;;;19.08;11.15;;;;;;;;;;5093363;28;20532;-68
2022/04/11 02:18:11;;;;;;;15.20;8.90;;;;;;;;;;5092953;28;20667;-68
2022/04/11 02:20:38;;;;;;;14.43;9.90;;;;;;;;;;5092850;28;20194;-68
2022/04/11 02:23:05;;;;;;;11.85;10.05;;;;;;;;;;5093478;28;20208;-68
2022/04/11 02:25:34;;;;;;;11.85;8.40;;;;;;;;;;5093159;28;20552;-68
2022/04/11 02:28:01;;;;;;;8.77;7.30;;;;;;;;;;5095135;28;20233;-68
2022/04/11 02:30:30;;;;;;;11.80;9.35;;;;;;;;;;5096707;28;20198;-68
2022/04/11 02:32:58;;;;;;;9.90;8.75;;;;;;;;;;5096805;28;20289;-68
2022/04/11 02:35:25;;;;;;;10.70;8.45;;;;;;;;;;5096353;28;20247;-68
2022/04/11 02:37:52;;;;;;;9.07;8.18;;;;;;;;;;5096438;28;20666;-68
2022/04/11 02:40:20;;;;;;;9.05;8.13;;;;;;;;;;5096963;28;20204;-68
2022/04/11 02:42:47;;;;;;;16.20;8.68;;;;;;;;;;5096967;28;20536;-68
2022/04/11 02:45:15;;;;;;;9.05;8.05;;;;;;;;;;5096626;28;20268;-68
2022/04/11 02:47:44;;;;;;;9.90;8.63;;;;;;;;;;5096576;28;20226;-68
2022/04/11 02:50:12;;;;;;;10.35;8.13;;;;;;;;;;5096066;28;20205;-67
2022/04/11 02:52:39;;;;;;;9.73;7.95;;;;;;;;;;5096483;28;20190;-68
2022/04/11 02:55:07;;;;;;;8.85;7.88;;;;;;;;;;5096290;28;20195;-67
2022/04/11 02:57:36;;;;;;;14.23;8.15;;;;;;;;;;5096626;28;20198;-68
2022/04/11 03:00:04;;;;;;;10.57;7.93;;;;;;;;;;5095868;28;20208;-68
2022/04/11 03:02:32;;;;;;;11.07;7.75;;;;;;;;;;5096124;28;20290;-68
2022/04/11 03:05:00;;;;;;;10.00;8.30;;;;;;;;;;5095996;28;20312;-67
2022/04/11 03:07:28;;;;;;;11.32;8.15;;;;;;;;;;5096171;28;20201;-68
2022/04/11 03:09:55;;;;;;;9.05;7.65;;;;;;;;;;5095773;28;20222;-67
2022/04/11 03:12:22;;;;;;;12.23;7.57;;;;;;;;;;5096023;28;20198;-68
2022/04/11 03:14:50;;;;;;;7.00;6.40;;;;;;;;;;5095981;28;20198;-68
2022/04/11 03:17:17;;;;;;;10.80;8.30;;;;;;;;;;5095706;28;20660;-68
2022/04/11 03:19:44;;;;;;;9.30;7.20;;;;;;;;;;5095927;28;20197;-68
2022/04/11 03:22:13;;;;;;;8.32;7.00;;;;;;;;;;5095591;28;20647;-67
2022/04/11 03:24:41;;;;;;;10.90;7.93;;;;;;;;;;5095420;28;20214;-67
2022/04/11 03:27:08;;;;;;;11.50;7.63;;;;;;;;;;5095405;28;20292;-67
2022/04/11 03:29:35;;;;;;;8.45;7.45;;;;;;;;;;5095757;28;20282;-68
2022/04/11 03:32:02;;;;;;;13.82;9.90;;;;;;;;;;5095674;28;20194;-67
2022/04/11 03:34:30;;;;;;;11.18;8.85;;;;;;;;;;5095267;28;20251;-68
2022/04/11 03:36:57;;;;;;;8.20;7.40;;;;;;;;;;5095568;28;20190;-68
2022/04/11 03:39:26;;;;;;;9.20;7.20;;;;;;;;;;5094652;28;20198;-68
2022/04/11 03:41:53;;;;;;;10.10;7.20;;;;;;;;;;5095479;28;20194;-68
2022/04/11 03:44:20;;;;;;;11.68;8.43;;;;;;;;;;5095059;28;20213;-68
2022/04/11 03:46:48;;;;;;;8.27;7.47;;;;;;;;;;5095042;28;20795;-68
2022/04/11 03:49:15;;;;;;;17.67;7.97;;;;;;;;;;5095348;28;20280;-68
2022/04/11 03:51:42;;;;;;;11.25;7.97;;;;;;;;;;5094932;28;20198;-68
2022/04/11 03:54:09;;;;;;;8.98;7.80;;;;;;;;;;5095254;28;20194;-68
2022/04/11 03:56:38;;;;;;;8.15;7.30;;;;;;;;;;5095302;28;20200;-68
2022/04/11 03:59:05;;;;;;;8.85;7.97;;;;;;;;;;5094765;28;20534;-69
2022/04/11 04:01:32;;;;;;;10.20;7.60;;;;;;;;;;5094962;28;20204;-68
2022/04/11 04:03:59;;;;;;;10.20;7.38;;;;;;;;;;5094679;28;20215;-68
2022/04/11 04:06:27;;;;;;;9.57;8.05;;;;;;;;;;5094952;28;20198;-68
2022/04/11 04:08:54;;;;;;;10.38;7.78;;;;;;;;;;5094690;28;20199;-68
2022/04/11 04:11:21;;;;;;;7.28;6.63;;;;;;;;;;5094483;28;20194;-67
2022/04/11 04:13:49;;;;;;;7.85;7.05;;;;;;;;;;5094198;28;20209;-68
2022/04/11 04:16:17;;;;;;;12.35;8.82;;;;;;;;;;5094339;28;20644;-68
2022/04/11 04:18:44;;;;;;;8.80;7.63;;;;;;;;;;5094090;28;20251;-68
2022/04/11 04:21:11;;;;;;;9.95;8.25;;;;;;;;;;5094541;28;20221;-68
2022/04/11 04:23:39;;;;;;;11.60;8.00;;;;;;;;;;5094245;28;20202;-68
2022/04/11 04:26:06;;;;;;;8.27;7.47;;;;;;;;;;5094293;28;20200;-68
2022/04/11 04:28:33;;;;;;;13.02;7.65;;;;;;;;;;5094334;28;20635;-69
2022/04/11 04:31:02;;;;;;;16.48;10.43;;;;;;;;;;5094261;28;20198;-68
2022/04/11 04:33:31;;;;;;;8.18;7.25;;;;;;;;;;5094180;28;20289;-68
2022/04/11 04:35:58;;;;;;;8.60;7.15;;;;;;;;;;5094245;28;20209;-69
2022/04/11 04:38:25;;;;;;;15.18;7.50;;;;;;;;;;5094135;28;20531;-68
2022/04/11 04:40:53;;;;;;;16.25;9.68;;;;;;;;;;5093917;28;20186;-68
2022/04/11 04:43:20;;;;;;;12.25;9.18;;;;;;;;;;5094188;28;20196;-68
2022/04/11 04:45:47;;;;;;;11.57;8.52;;;;;;;;;;5093533;28;20221;-67
2022/04/11 04:48:16;;;;;;;13.38;8.30;;;;;;;;;;5094710;28;20222;-68
2022/04/11 04:50:43;;;;;;;15.45;8.60;;;;;;;;;;5094026;28;20194;-67
2022/04/11 04:53:10;;;;;;;12.63;8.60;;;;;;;;;;5094103;28;20238;-67
2022/04/11 04:55:38;;;;;;;10.13;8.15;;;;;;;;;;5094153;28;20198;-67
2022/04/11 04:58:05;;;;;;;10.85;7.57;;;;;;;;;;5094003;28;20281;-67
2022/04/11 05:00:32;;;;;;;15.93;7.90;;;;;;;;;;5093873;28;20662;-69
2022/04/11 05:03:00;;;;;;;9.75;7.75;;;;;;;;;;5093799;28;20225;-68
2022/04/11 05:05:28;;;;;;;17.08;8.75;;;;;;;;;;5093748;28;20304;-68
2022/04/11 05:07:55;;;;;;;9.68;7.50;;;;;;;;;;5093392;28;20190;-68
2022/04/11 05:10:23;;;;;;;14.48;8.27;;;;;;;;;;5093616;28;20724;-68
2022/04/11 05:12:50;;;;;;;11.88;9.52;;;;;;;;;;5093638;28;20198;-68
2022/04/11 05:15:17;;;;;;;11.88;8.10;;;;;;;;;;5094124;28;20248;-68
2022/04/11 05:17:44;;;;;;;10.05;8.15;;;;;;;;;;5093058;28;20215;-68
2022/04/11 05:20:12;;;;;;;13.88;7.82;;;;;;;;;;5094365;28;20198;-69
2022/04/11 05:22:41;;;;;;;12.40;7.50;;;;;;;;;;5093370;28;20280;-68
2022/04/11 05:25:08;;;;;;;11.60;8.65;;;;;;;;;;5093728;28;20304;-68
2022/04/11 05:27:35;;;;;;;12.52;9.93;;;;;;;;;;5093461;28;20193;-70
2022/04/11 05:30:05;;;;;;;11.95;7.97;;;;;;;;;;5093565;28;20197;-69
2022/04/11 05:32:33;;;;;;;12.77;8.43;;;;;;;;;;5093222;28;20247;-69
2022/04/11 05:35:00;;;;;;;11.65;8.45;;;;;;;;;;5093865;28;20221;-69
2022/04/11 05:37:27;;;;;;;7.70;7.00;;;;;;;;;;5093447;28;20194;-69
2022/04/11 05:39:56;;;;;;;8.40;7.60;;;;;;;;;;5093909;28;20542;-69
2022/04/11 05:42:23;;;;;;;8.93;8.02;;;;;;;;;;5093479;28;20203;-70
2022/04/11 05:44:50;;;;;;;9.38;8.40;;;;;;;;;;5093336;28;20218;-70
2022/04/11 05:47:17;;;;;;;7.90;7.10;;;;;;;;;;5093820;28;20222;-69
2022/04/11 05:49:44;;;;;;;8.10;7.30;;;;;;;;;;5093572;28;20226;-69
2022/04/11 05:52:15;;;;;;;10.63;7.80;;;;;;;;;;5093372;28;20292;-69
2022/04/11 05:54:42;;;;;;;9.90;7.80;;;;;;;;;;5093882;28;20190;-69
2022/04/11 05:57:11;;;;;;;9.95;8.10;;;;;;;;;;5093542;28;20190;-69
2022/04/11 05:59:38;;;;;;;10.95;7.50;;;;;;;;;;5093401;28;20201;-69
2022/04/11 06:02:09;;;;;;;11.75;7.13;;;;;;;;;;5093672;28;20221;-69
2022/04/11 06:04:37;;;;;;;9.10;7.70;;;;;;;;;;5097611;28;20207;-69
2022/04/11 06:07:04;;;;;;;10.05;7.20;;;;;;;;;;5097219;28;20197;-69
2022/04/11 06:09:32;;;;;;;15.07;7.55;;;;;;;;;;5097255;28;20202;-69
2022/04/11 06:11:59;;;;;;;8.65;7.25;;;;;;;;;;5097608;28;20208;-69
2022/04/11 06:14:28;;;;;;;8.07;7.13;;;;;;;;;;5096865;28;20202;-70
2022/04/11 06:16:55;;;;;;;12.20;7.18;;;;;;;;;;5097265;28;20195;-71
2022/04/11 06:19:22;;;;;;;8.20;7.32;;;;;;;;;;5096681;28;20195;-68
2022/04/11 06:21:50;;;;;;;13.07;10.93;;;;;;;;;;5096963;28;20628;-68
2022/04/11 06:24:17;;;;;;;9.88;7.55;;;;;;;;;;5096998;28;20281;-68
2022/04/11 06:26:44;;;;;;;9.95;7.10;;;;;;;;;;5096943;28;20196;-68
2022/04/11 06:29:11;;;;;;;16.17;7.20;;;;;;;;;;5096442;28;20213;-69
2022/04/11 06:31:40;;;;;;;9.90;7.30;;;;;;;;;;5096740;28;20263;-69
2022/04/11 06:34:07;;;;;;;11.48;7.32;;;;;;;;;;5096319;28;20199;-69
2022/04/11 06:36:34;;;;;;;15.95;7.50;;;;;;;;;;5096981;28;20202;-69
2022/04/11 06:39:02;;;;;;;7.90;6.63;;;;;;;;;;5096240;28;20286;-69
2022/04/11 06:41:29;;;;;;;9.75;6.88;;;;;;;;;;5096458;28;20695;-70
2022/04/11 06:43:56;;;;;;;9.27;7.65;;;;;;;;;;5096417;28;20217;-69
2022/04/11 06:46:23;;;;;;;11.80;8.18;;;;;;;;;;5096382;28;20255;-69
2022/04/11 06:48:52;;;;;;;8.73;7.75;;;;;;;;;;5096104;28;20687;-69
2022/04/11 06:51:19;;;;;;;10.20;9.15;;;;;;;;;;5096193;28;20251;-69
2022/04/11 06:53:46;;;;;;;14.32;10.30;;;;;;;;;;5096511;28;20203;-69
2022/04/11 06:56:13;;;;;;;11.07;7.97;;;;;;;;;;5096422;28;20230;-69
2022/04/11 06:58:40;;;;;;;9.95;6.95;;;;;;;;;;5096422;28;20203;-69
2022/04/11 07:01:08;;;;;;;10.23;6.50;;;;;;;;;;5096302;28;20199;-70
2022/04/11 07:03:35;;;;;;;9.38;7.30;;;;;;;;;;5096266;28;20289;-69
2022/04/11 07:06:04;;;;;;;8.60;7.10;;;;;;;;;;5096074;28;20225;-69
2022/04/11 07:08:31;;;;;;;7.85;7.05;;;;;;;;;;5096210;28;20194;-70
2022/04/11 07:10:59;;;;;;;11.93;7.70;;;;;;;;;;5096644;28;20190;-69
2022/04/11 07:13:26;;;;;;;7.57;6.82;;;;;;;;;;5095308;28;20196;-69
2022/04/11 07:15:53;;;;;;;9.63;6.50;;;;;;;;;;5095474;28;20205;-69
2022/04/11 07:18:21;;;;;;;8.30;5.88;;;;;;;;;;5095774;28;20195;-69
2022/04/11 07:20:48;;;;;;;10.63;6.60;;;;;;;;;;5096081;28;20702;-69
2022/04/11 07:23:16;;;;;;;8.00;6.20;;;;;;;;;;5095772;28;20196;-69
2022/04/11 07:25:43;;;;;;;8.50;7.75;;;;;;;;;;5095805;28;20220;-69
2022/04/11 07:28:11;;;;;;;11.98;6.20;;;;;;;;;;5095759;28;20204;-70
2022/04/11 07:30:38;;;;;;;7.30;6.05;;;;;;;;;;5095992;28;20228;-70
2022/04/11 07:33:06;;;;;;;12.05;5.75;;;;;;;;;;5096205;28;20201;-69
2022/04/11 07:35:33;;;;;;;11.52;7.22;;;;;;;;;;5095580;28;20204;-70
2022/04/11 07:38:01;;;;;;;12.38;6.93;;;;;;;;;;5095767;28;20211;-70
2022/04/11 07:40:30;;;;;;;8.77;5.95;;;;;;;;;;5095170;28;20205;-70
2022/04/11 07:42:57;;;;;;;7.55;6.15;;;;;;;;;;5095812;28;20193;-69
2022/04/11 07:45:25;;;;;;;13.65;7.05;;;;;;;;;;5094923;28;20214;-69
2022/04/11 07:47:52;;;;;;;7.70;6.85;;;;;;;;;;5095688;28;20219;-69
2022/04/11 07:50:19;;;;;;;8.38;6.55;;;;;;;;;;5095189;28;20196;-70
2022/04/11 07:52:46;;;;;;;7.00;6.35;;;;;;;;;;5095691;28;20196;-69
2022/04/11 07:55:15;;;;;;;12.18;5.78;;;;;;;;;;5095503;28;20202;-69
2022/04/11 07:57:44;;;;;;;11.98;6.60;;;;;;;;;;5094723;28;20193;-69
2022/04/11 08:00:11;;;;;;;7.65;6.60;;;;;;;;;;5094717;28;20201;-69
2022/04/11 08:02:38;;;;;;;8.27;5.68;;;;;;;;;;5095300;28;20279;-70
2022/04/11 08:05:06;;;;;;;7.65;6.05;;;;;;;;;;5094565;28;20586;-69
2022/04/11 08:07:34;;;;;;;22.60;13.00;;;;;;;;;;5094906;28;20678;-69
2022/04/11 08:10:01;;;;;;;8.88;5.55;;;;;;;;;;5094852;28;20207;-69
2022/04/11 08:12:28;;;;;;;7.40;5.80;;;;;;;;;;5094525;28;20199;-69
2022/04/11 08:14:57;;;;;;;8.68;5.72;;;;;;;;;;5094407;28;20204;-69
2022/04/11 08:17:24;;;;;;;7.13;5.70;;;;;;;;;;5094171;28;20605;-69
2022/04/11 08:19:51;;;;;;;7.25;6.32;;;;;;;;;;5094633;28;20203;-69
2022/04/11 08:22:19;;;;;;;7.95;6.65;;;;;;;;;;5094991;28;20204;-69
2022/04/11 08:24:46;;;;;;;9.30;5.70;;;;;;;;;;5094265;28;20665;-70
2022/04/11 08:27:13;;;;;;;6.32;5.15;;;;;;;;;;5094315;28;20224;-69
2022/04/11 08:29:40;;;;;;;11.20;6.30;;;;;;;;;;5094030;28;20249;-69
2022/04/11 08:32:09;;;;;;;7.05;5.50;;;;;;;;;;5094920;28;20286;-69
2022/04/11 08:34:36;;;;;;;7.28;5.28;;;;;;;;;;5094331;28;20208;-69
2022/04/11 08:37:04;;;;;;;6.82;5.90;;;;;;;;;;5094332;28;20291;-69
2022/04/11 08:39:31;;;;;;;8.35;5.25;;;;;;;;;;5093996;28;20239;-69
2022/04/11 08:42:01;;;;;;;5.55;4.82;;;;;;;;;;5094027;28;20202;-69
2022/04/11 08:44:29;;;;;;;7.00;3.73;;;;;;;;;;5093920;28;20232;-69
2022/04/11 08:46:57;;;;;;;5.75;4.53;;;;;;;;;;5094181;28;20487;-69
2022/04/11 08:49:28;;;;;;;7.72;5.70;;;;;;;;;;5093826;28;20289;-69
2022/04/11 08:51:55;;;;;;;4.60;4.03;;;;;;;;;;5094766;28;20189;-69
2022/04/11 08:54:22;;;;;;;6.82;5.15;;;;;;;;;;5094719;28;20601;-69
2022/04/11 08:56:49;;;;;;;8.03;5.17;;;;;;;;;;5094110;28;20232;-71
2022/04/11 08:59:17;;;;;;;6.67;5.10;;;;;;;;;;5094301;28;20455;-69
2022/04/11 09:01:44;;;;;;;5.53;4.70;;;;;;;;;;5094238;28;20448;-69
2022/04/11 09:04:11;;;;;;;5.53;4.90;;;;;;;;;;5094026;28;20515;-69
2022/04/11 09:06:40;;;;;;;5.80;4.60;;;;;;;;;;5093597;28;20471;-69
2022/04/11 09:09:07;;;;;;;5.68;4.35;;;;;;;;;;5094206;28;20435;-69
2022/04/11 09:11:35;;;;;;;5.67;4.10;;;;;;;;;;5093825;28;20194;-69
2022/04/11 09:14:03;;;;;;;5.65;4.45;;;;;;;;;;5093568;28;20436;-69
2022/04/11 09:16:43;;;;;;;4.97;4.23;;;;;;;;;;5093787;28;20208;-69
2022/04/11 09:19:19;;;;;;;7.53;4.47;;;;;;;;;;5093513;28;20436;-69
2022/04/11 09:21:47;;;;;;;4.87;3.70;;;;;;;;;;5093435;28;20439;-69
2022/04/11 09:24:15;;;;;;;5.17;4.67;;;;;;;;;;5093926;28;20539;-70
2022/04/11 09:26:42;;;;;;;5.00;4.50;;;;;;;;;;5093788;28;20482;-69
2022/04/11 09:29:10;;;;;;;8.17;4.20;;;;;;;;;;5093980;28;20479;-69
2022/04/11 09:31:37;;;;;;;7.73;5.17;;;;;;;;;;5093530;28;20443;-69
2022/04/11 09:34:18;;;;;;;6.83;4.80;;;;;;;;;;5094232;28;20782;-69
2022/04/11 09:36:46;;;;;;;5.40;4.70;;;;;;;;;;5093189;28;20481;-69
2022/04/11 09:39:14;;;;;;;6.00;5.40;;;;;;;;;;5097337;28;20428;-69
2022/04/11 09:41:45;;;;;;;5.37;4.70;;;;;;;;;;5097860;28;20538;-69
2022/04/11 09:44:22;;;;;;;10.83;5.07;;;;;;;;;;5098184;28;20443;-69
2022/04/11 09:46:49;;;;;;;5.93;4.67;;;;;;;;;;5097464;28;20487;-69
2022/04/11 09:49:17;;;;;;;7.27;5.40;;;;;;;;;;5097905;28;20440;-69
2022/04/11 09:52:02;;;;;;;6.87;5.90;;;;;;;;;;5097477;28;20446;-69
2022/04/11 09:54:31;;;;;;;6.10;5.30;;;;;;;;;;5097902;28;20492;-69
2022/04/11 09:56:59;;;;;;;7.47;6.23;;;;;;;;;;5097144;28;20490;-69
2022/04/11 09:59:27;;;;;;;5.40;4.90;;;;;;;;;;5097087;28;20446;-69
2022/04/11 10:01:56;;;;;;;9.23;6.57;;;;;;;;;;5097271;28;20443;-69
2022/04/11 10:04:23;;;;;;;7.30;5.87;;;;;;;;;;5097302;28;20500;-70
2022/04/11 10:06:51;;;;;;;12.37;6.70;;;;;;;;;;5097423;28;20471;-70
2022/04/11 10:09:21;;;;;;;8.93;6.50;;;;;;;;;;5096884;28;21024;-70
2022/04/11 10:11:50;;;;;;;6.20;5.70;;;;;;;;;;5097409;28;20841;-69
2022/04/11 10:14:23;;;;;;;6.47;4.70;;;;;;;;;;5096827;28;20943;-70
2022/04/11 10:16:54;;;;;;;8.00;5.10;;;;;;;;;;5096730;28;20526;-70
2022/04/11 10:19:23;;;;;;;6.10;5.47;;;;;;;;;;5097517;28;20777;-69
2022/04/11 10:21:51;;;;;;;5.90;5.10;;;;;;;;;;5097261;28;20478;-69
2022/04/11 10:24:25;;;;;;;7.57;5.67;;;;;;;;;;5096968;28;20428;-69
2022/04/11 10:26:55;;;;;;;7.33;5.47;;;;;;;;;;5097311;28;20808;-69
2022/04/11 10:29:33;;;;;;;7.23;5.57;;;;;;;;;;5097663;28;20427;-68
2022/04/11 10:32:07;;;;;;;7.70;5.40;;;;;;;;;;5097155;28;20431;-69
2022/04/11 10:34:55;;;;;;;5.37;4.87;;;;;;;;;;5096316;28;20445;-69
2022/04/11 10:37:23;;;;;;;7.60;5.97;;;;;;;;;;5092952;28;20458;-69
2022/04/11 10:39:51;;;;;;;5.93;5.33;;;;;;;;;;5096389;28;20519;-69
2022/04/11 10:42:24;;;;;;;6.00;5.13;;;;;;;;;;5096665;28;20450;-68
2022/04/11 10:44:54;;;;;;;7.00;5.53;;;;;;;;;;5096218;28;20432;-69
2022/04/11 10:47:26;;;;;;;7.13;5.00;;;;;;;;;;5096033;28;20487;-68
2022/04/11 10:50:12;;;;;;;6.17;5.57;;;;;;;;;;5095781;28;20424;-69
2022/04/11 10:52:41;;;;;;;5.77;5.00;;;;;;;;;;5095875;28;21052;-70
2022/04/11 10:55:09;;;;;;;5.43;4.93;;;;;;;;;;5096889;28;20793;-70
2022/04/11 10:57:38;;;;;;;6.40;5.80;;;;;;;;;;5096008;28;20490;-69
2022/04/11 11:00:08;;;;;;;9.90;7.93;;;;;;;;;;5095964;28;20934;-69
2022/04/11 11:02:50;;;;;;;8.87;5.80;;;;;;;;;;5096181;28;20439;-70
2022/04/11 11:05:26;;;;;;;9.13;5.50;;;;;;;;;;5095740;28;20431;-70
2022/04/11 11:08:08;;;;;;;5.93;5.03;;;;;;;;;;5095645;28;20471;-69
2022/04/11 11:10:40;;;;;;;9.30;5.10;;;;;;;;;;5095944;28;20452;-69
2022/04/11 11:13:29;;;;;;;5.73;5.13;;;;;;;;;;5095604;28;20485;-70
2022/04/11 11:15:57;;;;;;;7.37;5.30;;;;;;;;;;5095696;28;20435;-69
2022/04/11 11:18:24;;;;;;;9.83;5.60;;;;;;;;;;5095960;28;20435;-70
2022/04/11 11:20:52;;;;;;;9.43;5.60;;;;;;;;;;5095331;28;20470;-70
2022/04/11 11:23:25;;;;;;;7.13;4.87;;;;;;;;;;5095739;28;20442;-70
2022/04/11 11:25:53;;;;;;;6.53;5.87;;;;;;;;;;5095920;28;20459;-70
2022/04/11 11:28:21;;;;;;;8.00;5.30;;;;;;;;;;5095854;28;20456;-70
2022/04/11 11:30:49;;;;;;;7.70;5.43;;;;;;;;;;5096161;28;20862;-70
2022/04/11 11:33:17;;;;;;;8.50;5.47;;;;;;;;;;5095029;28;20918;-72
2022/04/11 11:35:49;;;;;;;6.50;5.43;;;;;;;;;;5095601;28;20527;-66
2022/04/11 11:38:17;;;;;;;6.03;5.17;;;;;;;;;;5095106;28;20440;-67
2022/04/11 11:40:53;;;;;;;6.00;5.50;;;;;;;;;;5095721;28;20459;-67
2022/04/11 11:43:20;;;;;;;10.20;6.13;;;;;;;;;;5095389;28;20511;-66
2022/04/11 11:45:47;;;;;;;5.83;5.33;;;;;;;;;;5094579;28;20436;-67
2022/04/11 11:48:23;;;;;;;6.77;5.30;;;;;;;;;;5095464;28;20495;-67
2022/04/11 11:50:51;;;;;;;6.90;4.80;;;;;;;;;;5094944;28;20444;-66
2022/04/11 11:53:18;;;;;;;6.17;4.70;;;;;;;;;;5094598;28;20480;-67
2022/04/11 11:55:52;;;;;;;6.60;5.10;;;;;;;;;;5095016;28;20487;-67
2022/04/11 11:58:20;;;;;;;11.93;9.20;;;;;;;;;;5094616;28;20469;-66
2022/04/11 12:00:48;;;;;;;5.30;4.70;;;;;;;;;;5093948;28;20918;-66
2022/04/11 12:06:02;;;;;;;4.70;4.30;;;;;;;;;;5094874;28;20453;-66
2022/04/11 12:08:31;;;;;;;8.10;4.90;;;;;;;;;;5094522;28;20446;-66
2022/04/11 12:10:59;;;;;;;6.53;4.90;;;;;;;;;;5094689;28;20929;-66
2022/04/11 12:13:27;;;;;;;7.23;5.60;;;;;;;;;;5094668;28;20444;-67
2022/04/11 12:15:55;;;;;;;6.10;5.50;;;;;;;;;;5094091;28;20453;-66
2022/04/11 12:18:22;;;;;;;10.00;5.80;;;;;;;;;;5093872;28;20971;-66
2022/04/11 12:20:49;;;;;;;6.00;5.30;;;;;;;;;;5094164;28;20437;-66
2022/04/11 12:23:18;;;;;;;5.77;4.83;;;;;;;;;;5094366;28;20956;-67
2022/04/11 12:25:52;;;;;;;4.70;4.30;;;;;;;;;;5094741;28;20436;-66
2022/04/11 12:28:20;;;;;;;4.57;4.17;;;;;;;;;;5094441;28;20837;-66
2022/04/11 12:30:48;;;;;;;6.27;4.33;;;;;;;;;;5094241;28;20929;-67
2022/04/11 12:33:32;;;;;;;5.97;5.00;;;;;;;;;;5094121;28;20471;-67
2022/04/11 12:36:06;;;;;;;4.67;4.23;;;;;;;;;;5094440;28;20444;-66
2022/04/11 12:38:45;;;;;;;5.77;4.73;;;;;;;;;;5093528;28;20530;-67
2022/04/11 12:41:25;;;;;;;8.77;4.60;;;;;;;;;;5094197;28;20459;-67
2022/04/11 12:44:03;;;;;;;5.67;4.30;;;;;;;;;;5093868;28;21006;-66
2022/04/11 12:46:30;;;;;;;8.37;4.23;;;;;;;;;;5093734;28;20474;-67
2022/04/11 12:48:58;;;;;;;6.97;4.50;;;;;;;;;;5094202;28;20515;-66
2022/04/11 12:51:25;;;;;;;6.57;5.90;;;;;;;;;;5094504;28;20468;-67
2022/04/11 12:53:54;;;;;;;5.00;4.60;;;;;;;;;;5094070;28;20440;-67
2022/04/11 12:56:21;;;;;;;5.30;4.80;;;;;;;;;;5093717;28;20531;-67
2022/04/11 12:58:48;;;;;;;4.87;4.40;;;;;;;;;;5093922;28;20459;-66
2022/04/11 13:01:16;;;;;;;4.13;3.77;;;;;;;;;;5094029;28;20447;-67
2022/04/11 13:03:43;;;;;;;5.93;5.00;;;;;;;;;;5093744;28;20447;-67
2022/04/11 13:06:11;;;;;;;8.53;4.97;;;;;;;;;;5093917;28;20445;-67
2022/04/11 13:08:39;;;;;;;4.30;4.00;;;;;;;;;;5093689;28;20509;-67
2022/04/11 13:11:07;;;;;;;6.90;4.87;;;;;;;;;;5093539;28;20447;-67
2022/04/11 13:13:37;;;;;;;6.27;5.03;;;;;;;;;;5093450;28;20473;-67
2022/04/11 13:18:49;;;;;;;6.77;4.60;;;;;;;;;;5093390;28;20418;-67
2022/04/11 13:21:17;;;;;;;5.43;4.77;;;;;;;;;;5093701;28;20445;-67
2022/04/11 13:23:44;;;;;;;5.90;4.50;;;;;;;;;;5093269;28;20810;-67
2022/04/11 13:26:12;;;;;;;7.40;5.17;;;;;;;;;;5093196;28;20469;-68
2022/04/11 13:28:40;;;;;;;5.50;4.83;;;;;;;;;;5093370;28;20499;-67
2022/04/11 13:31:08;;;;;;;5.17;4.30;;;;;;;;;;5093346;28;21039;-67
2022/04/11 13:33:35;;;;;;;4.20;3.80;;;;;;;;;;5093409;28;20440;-67
2022/04/11 13:36:02;;;;;;;5.17;4.77;;;;;;;;;;5093612;28;20442;-67
2022/04/11 13:38:29;;;;;;;5.90;5.40;;;;;;;;;;5093156;28;20440;-67
2022/04/11 13:40:56;;;;;;;5.53;5.03;;;;;;;;;;5093387;28;20460;-67
2022/04/11 13:43:25;;;;;;;5.90;5.40;;;;;;;;;;5092974;28;21027;-67
2022/04/11 13:45:52;;;;;;;7.13;5.40;;;;;;;;;;5093215;28;20460;-67
2022/04/11 13:48:19;;;;;;;5.90;5.27;;;;;;;;;;5093211;28;20516;-67
2022/04/11 13:50:47;;;;;;;7.63;6.03;;;;;;;;;;5093093;28;20949;-67
2022/04/11 13:53:14;;;;;;;7.20;5.83;;;;;;;;;;5092842;28;20450;-67
2022/04/11 13:55:41;;;;;;;8.30;5.27;;;;;;;;;;5093769;28;20806;-66
2022/04/11 13:58:09;;;;;;;6.90;6.17;;;;;;;;;;5093458;28;20454;-67
2022/04/11 14:00:41;;;;;;;7.83;6.40;;;;;;;;;;5092969;28;20928;-67
2022/04/11 14:03:08;;;;;;;8.93;6.47;;;;;;;;;;5093148;28;20440;-67
2022/04/11 14:05:35;;;;;;;9.90;6.00;;;;;;;;;;5093021;28;20445;-67
2022/04/11 14:08:02;;;;;;;11.67;6.77;;;;;;;;;;5093278;28;20476;-67
2022/04/11 14:10:30;;;;;;;8.33;5.87;;;;;;;;;;5093451;28;20442;-67
2022/04/11 14:12:57;;;;;;;7.57;6.63;;;;;;;;;;5094099;28;20439;-66
2022/04/11 14:15:24;;;;;;;7.83;6.73;;;;;;;;;;5093151;28;20787;-67
2022/04/11 14:17:53;;;;;;;7.93;5.57;;;;;;;;;;5093110;28;20448;-66
2022/04/11 14:20:20;;;;;;;6.17;5.57;;;;;;;;;;5093031;28;20441;-66
2022/04/11 14:22:48;;;;;;;6.93;6.07;;;;;;;;;;5092725;28;20437;-67
2022/04/11 14:25:21;;;;;;;7.47;6.57;;;;;;;;;;5096866;28;20497;-67
2022/04/11 14:27:53;;;;;;;6.03;5.43;;;;;;;;;;5096383;28;20570;-67
2022/04/11 14:30:20;;;;;;;7.27;5.67;;;;;;;;;;5096378;28;20438;-67
2022/04/11 14:32:47;;;;;;;7.30;6.60;;;;;;;;;;5096285;28;20441;-67
2022/04/11 14:35:16;;;;;;;9.73;5.90;;;;;;;;;;5096308;28;20779;-67
2022/04/11 14:37:46;;;;;;;10.93;6.20;;;;;;;;;;5096112;28;20448;-66
2022/04/11 14:40:13;;;;;;;6.40;5.80;;;;;;;;;;5095953;28;20469;-67
2022/04/11 14:42:40;;;;;;;6.40;5.17;;;;;;;;;;5096401;28;20510;-67
2022/04/11 14:45:08;;;;;;;7.13;6.43;;;;;;;;;;5096225;28;20526;-67
2022/04/11 14:47:35;;;;;;;8.60;6.30;;;;;;;;;;5096107;28;20489;-67